Time;durP1;ratioP1;P1;durP2;ratioP2;P2;SDS_P1;SDS_P2;PMS_P1;PMS_P2;Temp;Humidity;BMP_temperature;BMP_pressure;BME280_temperature;BME280_humidity;BME280_pressure;Samples;Min_cycle;Max_cycle;Signal;HPM_P1;HPM_P2
2021/09/13 00:01:45;;;;;;;11.08;7.65;;;;;;;14.02;78.77;97648.63;1656502;85;21031;-75
2021/09/13 00:04:12;;;;;;;8.53;6.75;;;;;;;13.99;79.42;97649.19;1649010;87;21067;-75
2021/09/13 00:06:39;;;;;;;9.15;6.60;;;;;;;13.92;78.94;97646.91;1648599;87;21491;-75
2021/09/13 00:09:06;;;;;;;10.98;7.35;;;;;;;13.87;78.58;97649.78;1648792;86;20980;-75
2021/09/13 00:11:32;;;;;;;10.53;7.55;;;;;;;13.79;79.95;97647.98;1661762;85;21011;-74
2021/09/13 00:14:00;;;;;;;11.38;8.05;;;;;;;13.76;79.28;97649.45;1650001;87;21019;-74
2021/09/13 00:16:27;;;;;;;9.98;7.03;;;;;;;13.73;78.78;97649.12;1646143;86;21005;-75
2021/09/13 00:18:54;;;;;;;11.68;7.35;;;;;;;13.63;79.81;97650.05;1644478;87;21050;-75
2021/09/13 00:21:20;;;;;;;9.75;7.58;;;;;;;13.57;79.63;97647.20;1649611;85;21027;-75
2021/09/13 00:23:47;;;;;;;11.55;8.05;;;;;;;13.52;79.55;97649.22;1649950;86;21086;-75
2021/09/13 00:26:14;;;;;;;13.90;8.30;;;;;;;13.45;80.88;97641.95;1649611;87;21016;-76
2021/09/13 00:28:42;;;;;;;10.90;7.70;;;;;;;13.40;80.40;97649.30;1649033;87;20996;-75
2021/09/13 00:31:10;;;;;;;13.75;8.13;;;;;;;13.34;81.33;97650.43;1660713;86;21019;-75
2021/09/13 00:33:36;;;;;;;9.40;7.58;;;;;;;13.34;80.33;97642.94;1649859;86;21425;-75
2021/09/13 00:36:06;;;;;;;10.88;7.50;;;;;;;13.32;80.79;97641.67;1651663;85;21393;-75
2021/09/13 00:38:33;;;;;;;11.20;8.10;;;;;;;13.31;80.33;97643.06;1650013;87;21042;-75
2021/09/13 00:41:01;;;;;;;12.73;7.72;;;;;;;13.26;81.15;97639.75;1661072;85;21030;-75
2021/09/13 00:43:29;;;;;;;10.13;7.95;;;;;;;13.24;80.00;97634.50;1649822;87;21051;-75
2021/09/13 00:45:56;;;;;;;14.00;7.92;;;;;;;13.21;81.51;97635.98;1669285;85;21024;-75
2021/09/13 00:48:22;;;;;;;10.72;8.00;;;;;;;13.18;81.15;97634.34;1694420;85;21425;-75
2021/09/13 00:50:49;;;;;;;10.05;8.28;;;;;;;13.16;81.38;97637.52;1698174;83;21007;-75
2021/09/13 00:53:16;;;;;;;11.73;8.40;;;;;;;13.15;80.72;97642.90;1698664;83;21012;-75
2021/09/13 00:55:43;;;;;;;10.85;8.30;;;;;;;13.13;80.67;97632.80;1722227;83;20970;-75
2021/09/13 00:58:10;;;;;;;10.93;8.03;;;;;;;13.13;80.26;97635.47;1723404;83;21008;-75
2021/09/13 01:00:36;;;;;;;9.65;8.53;;;;;;;13.13;82.04;97635.47;1708868;83;21038;-75
2021/09/13 01:03:04;;;;;;;10.75;8.18;;;;;;;13.10;81.06;97627.62;1687510;83;21005;-75
2021/09/13 01:05:31;;;;;;;15.63;7.50;;;;;;;13.09;81.27;97629.89;1694597;85;21397;-75
2021/09/13 01:07:58;;;;;;;10.60;8.03;;;;;;;13.05;82.10;97634.00;1694531;85;21006;-75
2021/09/13 01:10:27;;;;;;;10.32;7.40;;;;;;;13.06;81.44;97633.55;1694409;85;20971;-75
2021/09/13 01:12:54;;;;;;;10.00;6.87;;;;;;;13.03;81.72;97629.23;1685711;85;20977;-75
2021/09/13 01:15:20;;;;;;;10.82;7.10;;;;;;;13.01;82.44;97624.47;1688884;83;21443;-74
2021/09/13 01:17:47;;;;;;;8.70;7.08;;;;;;;13.01;81.74;97627.58;1716995;83;21396;-75
2021/09/13 01:20:15;;;;;;;10.38;7.15;;;;;;;13.03;81.42;97628.36;1685591;85;21003;-75
2021/09/13 01:22:46;;;;;;;10.10;7.40;;;;;;;13.06;81.78;97627.77;1666439;85;20977;-74
2021/09/13 01:25:12;;;;;;;11.45;7.35;;;;;;;13.06;81.38;97629.11;1694439;85;20997;-74
2021/09/13 01:27:39;;;;;;;8.53;6.65;;;;;;;13.11;81.55;97632.00;1694820;85;20977;-74
2021/09/13 01:30:07;;;;;;;9.18;6.55;;;;;;;13.13;81.25;97636.34;1694445;85;21002;-74
2021/09/13 01:32:33;;;;;;;9.98;6.62;;;;;;;13.19;81.29;97636.51;1680464;85;21066;-74
2021/09/13 01:35:00;;;;;;;8.15;6.10;;;;;;;13.23;81.04;97634.56;1638570;86;20989;-74
2021/09/13 01:37:28;;;;;;;8.45;7.00;;;;;;;13.22;81.32;97637.70;1673538;85;21009;-74
2021/09/13 01:39:57;;;;;;;9.38;6.85;;;;;;;13.14;81.76;97638.06;1668561;85;21015;-74
2021/09/13 01:42:24;;;;;;;9.85;7.30;;;;;;;13.10;81.33;97634.27;1698656;83;21032;-74
2021/09/13 01:44:50;;;;;;;10.10;7.83;;;;;;;13.09;80.87;97632.09;1713432;83;21056;-75
2021/09/13 01:47:17;;;;;;;8.75;7.22;;;;;;;13.03;80.95;97636.34;1681135;85;21077;-74
2021/09/13 01:49:45;;;;;;;9.75;7.10;;;;;;;12.93;82.11;97634.58;1679265;85;21016;-75
2021/09/13 01:52:12;;;;;;;11.12;7.33;;;;;;;12.91;80.97;97631.11;1679389;85;20997;-74
2021/09/13 01:54:39;;;;;;;8.28;7.10;;;;;;;12.88;80.49;97640.09;1679656;85;21531;-74
2021/09/13 01:57:06;;;;;;;10.40;7.20;;;;;;;12.86;80.23;97635.77;1679713;85;21439;-75
2021/09/13 01:59:35;;;;;;;13.48;7.67;;;;;;;12.82;80.72;97635.53;1678610;85;21024;-74
2021/09/13 02:02:02;;;;;;;12.35;7.47;;;;;;;12.73;82.65;97638.99;1679303;85;20973;-74
2021/09/13 02:04:29;;;;;;;9.43;7.87;;;;;;;12.72;80.51;97641.71;1679439;85;21004;-74
2021/09/13 02:06:57;;;;;;;9.63;7.45;;;;;;;12.67;80.72;97640.11;1677133;84;21111;-75
2021/09/13 02:09:23;;;;;;;10.88;7.22;;;;;;;12.63;81.48;97643.83;1679086;85;21002;-75
2021/09/13 02:11:50;;;;;;;8.95;7.00;;;;;;;12.58;81.14;97633.02;1679374;85;21061;-76
2021/09/13 02:14:18;;;;;;;10.78;7.50;;;;;;;12.54;81.88;97635.80;1679199;85;21061;-75
2021/09/13 02:16:45;;;;;;;9.78;7.33;;;;;;;12.48;82.72;97632.09;1679482;85;21074;-75
2021/09/13 02:19:14;;;;;;;12.55;7.67;;;;;;;12.43;82.61;97635.41;1665324;85;21087;-75
2021/09/13 02:21:41;;;;;;;8.48;7.40;;;;;;;12.38;82.81;97635.59;1663151;85;20985;-74
2021/09/13 02:24:08;;;;;;;7.92;6.85;;;;;;;12.35;82.99;97641.06;1679131;85;21477;-74
2021/09/13 02:26:35;;;;;;;13.22;7.83;;;;;;;12.34;81.84;97633.98;1658234;85;21008;-74
2021/09/13 02:29:02;;;;;;;9.40;7.75;;;;;;;12.34;81.90;97631.81;1679384;85;21059;-74
2021/09/13 02:31:29;;;;;;;10.13;7.60;;;;;;;12.31;81.39;97638.13;1682236;84;21456;-74
2021/09/13 02:33:56;;;;;;;10.45;7.30;;;;;;;12.30;82.42;97635.08;1667951;85;21004;-74
2021/09/13 02:36:23;;;;;;;12.40;8.20;;;;;;;12.28;82.53;97633.80;1678709;85;21442;-75
2021/09/13 02:38:50;;;;;;;9.38;7.47;;;;;;;12.27;82.47;97636.52;1679625;85;21031;-75
2021/09/13 02:41:17;;;;;;;9.88;7.47;;;;;;;12.25;81.96;97643.22;1679171;85;21089;-74
2021/09/13 02:43:43;;;;;;;9.00;7.87;;;;;;;12.24;84.35;97636.64;1679748;85;21014;-75
2021/09/13 02:46:12;;;;;;;9.35;7.17;;;;;;;12.21;82.89;97636.79;1680292;85;21434;-75
2021/09/13 02:48:39;;;;;;;11.50;8.13;;;;;;;12.18;83.20;97636.91;1655639;85;21007;-75
2021/09/13 02:51:07;;;;;;;10.30;7.62;;;;;;;12.19;82.44;97640.83;1657503;85;21043;-76
2021/09/13 02:53:35;;;;;;;10.23;7.25;;;;;;;12.18;84.14;97636.45;1681676;85;21454;-76
2021/09/13 02:56:03;;;;;;;9.65;7.03;;;;;;;12.20;83.22;97634.59;1686743;84;20969;-75
2021/09/13 02:58:31;;;;;;;10.18;7.55;;;;;;;12.20;84.48;97639.05;1689207;84;20999;-76
2021/09/13 03:00:57;;;;;;;10.68;7.33;;;;;;;12.24;83.12;97637.97;1680193;85;21049;-76
2021/09/13 03:03:24;;;;;;;9.45;7.00;;;;;;;12.27;83.22;97636.07;1681494;85;21037;-75
2021/09/13 03:05:52;;;;;;;9.50;6.80;;;;;;;12.31;82.83;97632.81;1660755;85;20982;-75
2021/09/13 03:08:19;;;;;;;9.15;6.75;;;;;;;12.35;82.56;97640.18;1681432;85;21011;-76
2021/09/13 03:10:46;;;;;;;8.75;6.62;;;;;;;12.38;82.69;97638.73;1681307;85;21539;-75
2021/09/13 03:13:14;;;;;;;10.15;6.65;;;;;;;12.37;82.57;97632.54;1703647;84;20953;-75
2021/09/13 03:15:41;;;;;;;9.25;6.70;;;;;;;12.39;82.76;97636.47;1692633;84;21049;-75
2021/09/13 03:18:07;;;;;;;12.28;7.17;;;;;;;12.40;83.44;97644.38;1691193;84;21031;-75
2021/09/13 03:20:35;;;;;;;9.55;7.30;;;;;;;12.37;83.40;97641.84;1685653;84;21042;-75
2021/09/13 03:23:02;;;;;;;8.88;7.10;;;;;;;12.35;82.89;97645.05;1683927;83;21009;-75
2021/09/13 03:25:29;;;;;;;10.32;7.17;;;;;;;12.37;82.88;97641.00;1690139;84;21040;-75
2021/09/13 03:27:58;;;;;;;10.28;7.10;;;;;;;12.37;82.30;97642.33;1680926;85;20975;-75
2021/09/13 03:30:26;;;;;;;9.00;7.50;;;;;;;12.34;82.10;97642.45;1680550;85;21026;-75
2021/09/13 03:32:52;;;;;;;10.15;6.92;;;;;;;12.30;81.94;97642.17;1669651;85;20962;-75
2021/09/13 03:35:19;;;;;;;11.45;7.55;;;;;;;12.24;81.63;97641.95;1682958;84;20962;-75
2021/09/13 03:37:46;;;;;;;9.48;7.37;;;;;;;12.20;82.12;97648.35;1695890;84;21027;-75
2021/09/13 03:40:13;;;;;;;10.90;7.35;;;;;;;12.12;81.38;97646.86;1710054;84;21033;-75
2021/09/13 03:42:40;;;;;;;11.78;7.85;;;;;;;12.07;81.38;97643.98;1688349;84;21011;-76
2021/09/13 03:45:09;;;;;;;13.93;8.33;;;;;;;11.99;81.56;97643.82;1681384;85;21035;-76
2021/09/13 03:47:52;;;;;;;11.25;7.83;;;;;;;11.97;81.95;97644.36;1663479;85;21025;-75
2021/09/13 03:50:20;;;;;;;9.48;7.70;;;;;;;11.92;83.57;97651.63;1664014;86;21469;-76
2021/09/13 03:52:47;;;;;;;11.12;7.92;;;;;;;11.86;83.07;97650.55;1678453;85;20969;-75
2021/09/13 03:55:15;;;;;;;11.88;7.67;;;;;;;11.81;83.76;97655.19;1680296;85;21013;-75
2021/09/13 03:57:42;;;;;;;11.65;7.47;;;;;;;11.74;85.54;97651.45;1631558;88;21061;-75
2021/09/13 04:00:11;;;;;;;10.60;7.83;;;;;;;11.72;85.79;97659.08;1638686;86;21057;-75
2021/09/13 04:02:44;;;;;;;10.35;7.55;;;;;;;11.71;84.96;97650.72;1638769;87;21005;-75
2021/09/13 04:05:13;;;;;;;9.75;7.75;;;;;;;11.71;85.15;97660.02;1640463;87;21003;-75
2021/09/13 04:08:06;;;;;;;11.83;7.75;;;;;;;11.72;84.12;97665.23;1638910;87;21009;-75
2021/09/13 04:12:58;;;;;;;9.38;7.72;;;;;;;11.71;85.15;97665.32;1596966;88;21053;-76
2021/09/13 04:15:32;;;;;;;;;;;;;;;11.71;84.78;97671.47;1622004;88;21002;-75
2021/09/13 04:18:00;;;;;;;10.58;7.50;;;;;;;11.70;85.15;97666.22;1570135;89;20134;-75
2021/09/13 04:20:35;;;;;;;10.60;7.80;;;;;;;11.71;85.87;97663.52;1613801;88;21057;-75
2021/09/13 04:23:03;;;;;;;13.45;8.30;;;;;;;11.75;84.59;97665.57;1639850;86;21061;-76
2021/09/13 04:25:38;;;;;;;10.38;6.90;;;;;;;11.77;84.96;97666.39;1681539;85;21453;-76
2021/09/13 04:28:24;;;;;;;9.68;7.08;;;;;;;11.77;86.07;97665.06;1636793;87;21118;-76
2021/09/13 04:30:55;;;;;;;13.28;8.23;;;;;;;11.83;85.16;97667.47;1638000;86;20966;-76
2021/09/13 04:33:40;;;;;;;11.48;7.40;;;;;;;11.87;84.66;97673.52;1664944;85;21057;-76
2021/09/13 04:36:18;;;;;;;14.50;7.22;;;;;;;11.90;85.12;97673.41;1650166;86;21045;-76
2021/09/13 04:38:47;;;;;;;13.13;8.50;;;;;;;11.97;84.42;97679.34;1628620;88;21040;-75
2021/09/13 04:41:25;;;;;;;11.33;6.95;;;;;;;12.02;84.33;97674.70;1633995;87;21052;-76
2021/09/13 04:43:59;;;;;;;8.30;6.45;;;;;;;12.06;84.43;97672.81;1638725;86;21524;-77
2021/09/13 04:46:43;;;;;;;12.65;8.28;;;;;;;12.12;84.06;97684.50;1640376;86;21111;-76
2021/09/13 04:49:24;;;;;;;9.65;6.45;;;;;;;12.16;83.87;97688.77;1655482;84;21118;-75
2021/09/13 04:51:57;;;;;;;9.30;6.90;;;;;;;12.19;83.94;97682.47;1696609;84;21021;-75
2021/09/13 04:54:37;;;;;;;9.73;7.00;;;;;;;12.26;83.73;97685.28;1678269;84;21023;-75
2021/09/13 04:57:05;;;;;;;9.38;7.30;;;;;;;12.31;83.66;97682.42;1652325;87;21075;-75
2021/09/13 04:59:31;;;;;;;11.10;7.08;;;;;;;12.36;83.64;97681.77;1652692;87;21031;-75
2021/09/13 05:01:58;;;;;;;9.95;7.00;;;;;;;12.38;83.42;97686.09;1675102;85;21082;-76
2021/09/13 05:04:26;;;;;;;11.93;7.37;;;;;;;12.43;83.37;97677.94;1680754;85;21004;-76
2021/09/13 05:06:53;;;;;;;12.37;7.42;;;;;;;12.46;83.25;97685.76;1678128;85;21046;-77
2021/09/13 05:09:20;;;;;;;10.35;7.75;;;;;;;12.42;83.71;97681.53;1681321;85;20988;-76
2021/09/13 05:11:46;;;;;;;10.72;7.47;;;;;;;12.40;83.38;97684.70;1681369;85;21478;-77
2021/09/13 05:14:15;;;;;;;14.63;8.00;;;;;;;12.40;83.00;97682.91;1677465;84;21054;-76
2021/09/13 05:16:41;;;;;;;14.23;8.03;;;;;;;12.40;82.97;97688.23;1672598;85;20958;-76
2021/09/13 05:19:08;;;;;;;13.75;8.30;;;;;;;12.41;82.48;97689.95;1695569;84;21057;-76
2021/09/13 05:21:40;;;;;;;11.78;8.68;;;;;;;12.43;82.43;97689.02;1710061;84;21033;-76
2021/09/13 05:24:07;;;;;;;12.53;8.50;;;;;;;12.46;82.10;97693.73;1699436;84;21044;-76
2021/09/13 05:26:35;;;;;;;14.68;9.03;;;;;;;12.39;82.07;97691.83;1661802;85;21097;-76
2021/09/13 05:29:02;;;;;;;17.20;10.25;;;;;;;12.36;82.52;97697.25;1681657;85;20989;-76
2021/09/13 05:31:29;;;;;;;18.98;10.95;;;;;;;12.34;83.59;97695.11;1686364;83;20973;-76
2021/09/13 05:33:56;;;;;;;22.77;12.75;;;;;;;12.37;82.83;97700.30;1651329;85;20990;-75
2021/09/13 05:36:22;;;;;;;19.37;11.60;;;;;;;12.38;82.39;97700.70;1668067;85;20951;-75
2021/09/13 05:38:49;;;;;;;20.70;11.57;;;;;;;12.40;83.45;97699.31;1681541;85;21053;-76
2021/09/13 05:41:21;;;;;;;21.73;10.45;;;;;;;12.43;83.13;97692.55;1682454;84;20969;-75
2021/09/13 05:43:49;;;;;;;19.15;11.30;;;;;;;12.47;82.53;97699.47;1674222;85;21442;-76
2021/09/13 05:46:15;;;;;;;18.35;10.38;;;;;;;12.54;82.21;97698.27;1681449;85;20962;-76
2021/09/13 05:48:42;;;;;;;14.60;9.73;;;;;;;12.62;82.00;97695.77;1681659;85;21053;-76
2021/09/13 05:51:09;;;;;;;14.73;9.10;;;;;;;12.69;81.89;97690.56;1681540;85;21447;-76
2021/09/13 05:53:36;;;;;;;10.40;8.78;;;;;;;12.77;82.26;97694.22;1663640;84;21020;-75
2021/09/13 05:56:03;;;;;;;17.12;9.18;;;;;;;12.85;82.36;97693.89;1652179;87;21019;-76
2021/09/13 05:58:31;;;;;;;12.80;8.90;;;;;;;12.92;81.83;97700.68;1652430;87;20999;-75
2021/09/13 06:00:58;;;;;;;13.32;9.75;;;;;;;12.99;81.96;97699.47;1659088;85;21377;-74
2021/09/13 06:03:25;;;;;;;15.88;9.13;;;;;;;13.07;81.46;97701.33;1681220;85;20992;-75
2021/09/13 06:05:56;;;;;;;14.43;9.18;;;;;;;13.14;81.15;97701.92;1689470;84;21364;-73
2021/09/13 06:08:23;;;;;;;11.65;8.70;;;;;;;13.24;81.56;97697.52;1697564;84;21492;-75
2021/09/13 06:10:50;;;;;;;11.33;8.38;;;;;;;13.34;81.21;97689.02;1679011;84;21019;-77
2021/09/13 06:13:18;;;;;;;15.93;8.38;;;;;;;13.45;81.10;97685.88;1652587;86;21055;-75
2021/09/13 06:15:45;;;;;;;12.53;7.92;;;;;;;13.58;81.14;97686.68;1633958;87;21019;-74
2021/09/13 06:18:14;;;;;;;13.85;7.90;;;;;;;13.71;80.90;97681.64;1652750;86;21036;-73
2021/09/13 06:20:40;;;;;;;10.45;7.40;;;;;;;13.84;80.83;97691.23;1656635;85;21064;-73
2021/09/13 06:23:06;;;;;;;11.28;7.65;;;;;;;13.97;80.69;97687.50;1682481;84;21039;-73
2021/09/13 06:25:34;;;;;;;13.05;8.10;;;;;;;14.10;80.46;97692.64;1674596;84;21066;-73
2021/09/13 06:28:02;;;;;;;12.03;7.78;;;;;;;14.24;80.25;97692.41;1680263;84;21073;-74
2021/09/13 06:30:29;;;;;;;10.08;7.37;;;;;;;14.38;79.84;97688.58;1682148;84;21041;-75
2021/09/13 06:32:57;;;;;;;11.57;7.12;;;;;;;14.52;79.62;97690.58;1679273;85;21265;-74
2021/09/13 06:35:24;;;;;;;8.90;6.72;;;;;;;14.66;79.13;97689.02;1680913;85;21465;-76
2021/09/13 06:38:04;;;;;;;10.50;6.75;;;;;;;14.81;78.93;97686.50;1675409;85;21003;-74
2021/09/13 06:40:31;;;;;;;17.30;7.60;;;;;;;14.91;77.69;97687.78;1677098;85;20996;-74
2021/09/13 06:42:59;;;;;;;11.93;6.97;;;;;;;15.04;77.65;97687.50;1681249;84;21031;-73
2021/09/13 06:45:26;;;;;;;12.45;7.37;;;;;;;15.17;77.62;97690.38;1679882;85;20993;-74
2021/09/13 06:47:53;;;;;;;11.40;7.20;;;;;;;15.29;77.13;97686.19;1678592;85;21022;-74
2021/09/13 06:50:24;;;;;;;15.50;7.10;;;;;;;15.41;77.11;97687.83;1678336;85;21442;-74
2021/09/13 06:52:54;;;;;;;11.20;7.05;;;;;;;15.52;76.45;97688.55;1677486;85;21003;-74
2021/09/13 06:55:22;;;;;;;10.28;7.20;;;;;;;15.64;76.44;97683.89;1678997;85;20971;-74
2021/09/13 06:57:49;;;;;;;9.08;6.70;;;;;;;15.76;75.99;97680.13;1679085;85;20988;-76
2021/09/13 07:00:20;;;;;;;13.45;7.42;;;;;;;15.89;75.80;97689.19;1663998;85;21041;-75
2021/09/13 07:02:47;;;;;;;17.23;10.43;;;;;;;16.00;75.46;97681.07;1649668;87;21561;-78
2021/09/13 07:05:15;;;;;;;13.78;7.92;;;;;;;16.09;75.52;97680.55;1650286;87;21027;-78
2021/09/13 07:07:42;;;;;;;10.10;6.87;;;;;;;16.20;74.29;97687.47;1682299;84;21020;-78
2021/09/13 07:10:17;;;;;;;11.33;6.87;;;;;;;16.32;73.97;97686.39;1678511;85;21042;-78
2021/09/13 07:12:40;;;;;;;8.95;6.50;;;;;;;16.41;74.04;97682.31;1705794;84;21002;-79
2021/09/13 07:15:10;;;;;;;8.40;6.42;;;;;;;16.50;73.77;97690.64;1707188;84;21079;-76
2021/09/13 07:17:36;;;;;;;8.83;6.75;;;;;;;16.59;73.28;97684.37;1678582;85;21469;-76
2021/09/13 07:20:04;;;;;;;9.53;6.08;;;;;;;16.69;72.57;97680.19;1679185;85;21012;-76
2021/09/13 07:22:31;;;;;;;9.63;6.10;;;;;;;16.80;70.96;97686.25;1678691;85;21444;-76
2021/09/13 07:24:57;;;;;;;9.65;6.35;;;;;;;16.93;71.95;97684.18;1678946;85;20987;-77
2021/09/13 07:27:24;;;;;;;9.40;6.47;;;;;;;17.01;71.26;97681.41;1678942;85;21043;-76
2021/09/13 07:29:50;;;;;;;9.30;6.28;;;;;;;17.13;71.48;97685.19;1679179;85;21043;-76
2021/09/13 07:32:17;;;;;;;9.60;6.83;;;;;;;17.22;70.36;97687.77;1678586;84;21086;-73
2021/09/13 07:34:43;;;;;;;8.70;5.70;;;;;;;17.33;71.00;97690.25;1676117;85;20962;-73
2021/09/13 07:37:09;;;;;;;9.90;6.60;;;;;;;17.39;71.03;97688.05;1677342;84;21125;-73
2021/09/13 07:39:36;;;;;;;11.70;6.40;;;;;;;17.49;69.67;97688.82;1676891;84;21066;-75
2021/09/13 07:42:03;;;;;;;7.90;6.12;;;;;;;17.59;69.19;97693.10;1672711;84;21021;-74
2021/09/13 07:44:30;;;;;;;10.40;6.30;;;;;;;17.67;69.50;97687.66;1672422;84;21011;-75
2021/09/13 07:46:57;;;;;;;11.65;6.67;;;;;;;17.77;69.26;97691.09;1663171;86;21012;-75
2021/09/13 07:49:23;;;;;;;11.10;6.20;;;;;;;17.85;69.07;97686.08;1659601;85;21018;-75
2021/09/13 07:51:52;;;;;;;8.63;6.65;;;;;;;17.97;68.85;97688.95;1680594;85;21022;-75
2021/09/13 07:54:22;;;;;;;9.25;6.17;;;;;;;18.06;68.76;97683.84;1659485;85;22377;-75
2021/09/13 07:56:48;;;;;;;8.95;6.78;;;;;;;18.18;68.69;97690.72;1680909;85;21621;-76
2021/09/13 07:59:15;;;;;;;9.85;6.17;;;;;;;18.28;68.14;97692.33;1680999;85;20998;-76
2021/09/13 08:01:41;;;;;;;9.83;6.10;;;;;;;18.37;67.84;97690.84;1680755;85;21019;-75
2021/09/13 08:04:10;;;;;;;12.23;6.87;;;;;;;18.45;67.65;97689.86;1680853;85;21063;-75
2021/09/13 08:06:39;;;;;;;9.03;6.12;;;;;;;18.53;67.88;97691.56;1684237;84;21009;-75
2021/09/13 08:09:07;;;;;;;10.20;6.80;;;;;;;18.61;67.65;97688.36;1687667;84;21109;-76
2021/09/13 08:11:35;;;;;;;10.53;6.12;;;;;;;18.69;67.30;97687.83;1679326;85;21439;-75
2021/09/13 08:14:02;;;;;;;14.35;11.60;;;;;;;18.76;67.44;97686.44;1680643;85;21096;-75
2021/09/13 08:16:30;;;;;;;14.05;9.10;;;;;;;18.84;67.40;97686.78;1680899;84;21398;-76
2021/09/13 08:19:00;;;;;;;10.75;8.23;;;;;;;18.93;67.04;97691.16;1680756;85;21168;-76
2021/09/13 08:21:28;;;;;;;12.23;6.28;;;;;;;19.01;66.51;97687.43;1680561;85;20998;-75
2021/09/13 08:24:00;;;;;;;11.93;6.78;;;;;;;19.09;66.44;97688.27;1680871;85;21044;-76
2021/09/13 08:26:26;;;;;;;9.35;6.45;;;;;;;19.17;65.97;97684.58;1680668;85;21012;-75
2021/09/13 08:28:52;;;;;;;9.30;6.22;;;;;;;19.30;65.46;97688.60;1680101;84;21002;-75
2021/09/13 08:31:19;;;;;;;9.40;6.22;;;;;;;19.41;65.27;97686.98;1681920;84;21454;-75
2021/09/13 08:33:46;;;;;;;11.25;6.05;;;;;;;19.54;63.58;97683.80;1689321;84;21001;-74
2021/09/13 08:36:13;;;;;;;8.75;5.90;;;;;;;19.68;64.28;97677.42;1691731;84;21014;-75
2021/09/13 08:38:40;;;;;;;8.38;5.97;;;;;;;19.77;64.29;97675.92;1687011;84;20983;-75
2021/09/13 08:41:06;;;;;;;10.32;6.28;;;;;;;19.85;63.70;97680.73;1680682;85;21445;-75
2021/09/13 08:43:33;;;;;;;7.30;5.85;;;;;;;19.94;63.61;97677.84;1680638;85;21013;-78
2021/09/13 08:46:23;;;;;;;9.18;6.08;;;;;;;20.00;63.11;97683.67;1679946;85;21160;-76
2021/09/13 08:48:50;;;;;;;12.90;10.38;;;;;;;20.10;63.09;97674.92;1678344;85;21075;-76
2021/09/13 08:53:48;;;;;;;7.87;5.80;;;;;;;20.23;61.25;97682.94;1678508;85;21024;-74
2021/09/13 08:56:15;;;;;;;9.48;6.17;;;;;;;20.38;61.33;97680.95;1678304;85;21107;-74
2021/09/13 08:58:44;;;;;;;8.90;6.58;;;;;;;20.44;60.74;97680.48;1679041;85;21019;-74
2021/09/13 09:01:13;;;;;;;9.98;6.25;;;;;;;20.48;60.07;97679.28;1678763;85;21096;-74
2021/09/13 09:03:43;;;;;;;7.75;5.75;;;;;;;20.55;60.64;97683.20;1665644;85;21078;-74
2021/09/13 09:06:31;;;;;;;9.33;6.12;;;;;;;20.62;57.75;97680.91;1650179;86;21066;-74
2021/09/13 09:09:08;;;;;;;8.43;5.90;;;;;;;20.75;59.62;97679.98;1649867;87;21036;-75
2021/09/13 09:12:04;;;;;;;10.40;6.03;;;;;;;20.84;58.99;97677.43;1650048;87;21047;-75
2021/09/13 09:14:41;;;;;;;9.68;6.53;;;;;;;20.94;58.06;97678.10;1669168;84;21483;-75
2021/09/13 09:17:28;;;;;;;12.63;6.10;;;;;;;21.08;56.47;97670.28;1676562;84;21046;-75
2021/09/13 09:20:11;;;;;;;11.10;6.40;;;;;;;21.19;57.46;97675.70;1672796;85;21087;-75
2021/09/13 09:22:40;;;;;;;8.15;5.72;;;;;;;21.28;56.63;97666.51;1678712;85;21103;-75
2021/09/13 09:25:25;;;;;;;9.63;5.97;;;;;;;21.36;57.32;97672.16;1679082;85;21469;-75
2021/09/13 09:28:02;;;;;;;10.25;6.00;;;;;;;21.44;54.27;97668.37;1685149;84;20977;-76
2021/09/13 09:30:46;;;;;;;11.18;6.42;;;;;;;21.56;54.78;97669.70;1675346;85;21034;-76
2021/09/13 09:33:19;;;;;;;10.80;6.37;;;;;;;21.65;55.61;97663.58;1674349;85;21032;-78
2021/09/13 09:35:51;;;;;;;10.80;6.58;;;;;;;21.75;53.57;97660.53;1650775;85;21522;-75
2021/09/13 09:38:40;;;;;;;8.60;5.70;;;;;;;21.85;53.64;97659.27;1671266;85;20979;-75
2021/09/13 09:41:12;;;;;;;11.78;6.05;;;;;;;21.94;52.59;97659.52;1676821;85;21035;-74
2021/09/13 09:43:57;;;;;;;14.07;6.37;;;;;;;22.08;53.52;97661.09;1677608;84;21442;-75
2021/09/13 09:46:39;;;;;;;11.45;8.28;;;;;;;22.19;53.81;97664.23;1671777;85;21419;-74
2021/09/13 09:49:16;;;;;;;14.75;7.03;;;;;;;22.27;52.99;97664.46;1669409;85;21005;-75
2021/09/13 09:51:50;;;;;;;8.28;5.35;;;;;;;22.37;53.92;97659.13;1654698;86;21012;-75
2021/09/13 09:54:24;;;;;;;8.95;5.70;;;;;;;22.44;49.91;97657.65;1636798;88;21517;-75
2021/09/13 09:57:06;;;;;;;;;;;;;;;22.54;49.03;97659.97;1615293;87;21556;-75
2021/09/13 09:59:37;;;;;;;7.70;5.33;;;;;;;22.60;49.97;97656.38;1609696;89;20096;-75
2021/09/13 10:02:18;;;;;;;9.15;5.58;;;;;;;22.72;49.64;97654.48;1609582;88;21071;-75
2021/09/13 10:04:59;;;;;;;8.23;5.75;;;;;;;22.84;48.16;97655.28;1624074;87;21017;-75
2021/09/13 10:07:22;;;;;;;8.48;6.15;;;;;;;22.88;48.29;97654.03;1648061;87;21095;-75
2021/09/13 10:09:49;;;;;;;8.80;5.62;;;;;;;22.93;49.42;97643.17;1662322;86;21045;-74
2021/09/13 10:12:16;;;;;;;8.43;5.58;;;;;;;23.23;50.28;97642.00;1652387;86;20996;-74
2021/09/13 10:14:43;;;;;;;9.58;6.30;;;;;;;23.23;50.28;97642.00;1637548;86;21040;-74
2021/09/13 10:17:09;;;;;;;5.62;5.00;;;;;;;23.40;50.44;97631.56;1636886;88;21047;-74
2021/09/13 10:19:36;;;;;;;6.72;5.00;;;;;;;23.43;44.27;97633.52;1629114;88;21652;-75
2021/09/13 10:22:03;;;;;;;7.95;4.70;;;;;;;23.58;47.44;97628.58;1646415;86;21016;-75
2021/09/13 10:24:32;;;;;;;6.70;4.72;;;;;;;23.58;47.44;97628.58;1650302;86;21020;-75
2021/09/13 10:27:09;;;;;;;7.37;4.97;;;;;;;23.70;44.62;97627.11;1644317;86;21032;-76
2021/09/13 10:29:36;;;;;;;8.55;5.33;;;;;;;23.76;43.61;97622.52;1646014;86;20960;-78
2021/09/13 10:32:07;;;;;;;7.67;5.28;;;;;;;23.88;44.26;97617.84;1640604;86;21039;-77
2021/09/13 10:34:42;;;;;;;8.43;5.20;;;;;;;24.08;43.84;97618.72;1604977;88;21033;-77
2021/09/13 10:37:18;;;;;;;7.70;4.60;;;;;;;24.64;43.80;97618.19;1636636;86;21004;-78
2021/09/13 10:40:08;;;;;;;8.48;4.78;;;;;;;25.83;43.15;97614.11;1637299;88;21024;-77
2021/09/13 10:42:49;;;;;;;5.12;4.45;;;;;;;27.09;40.27;97605.23;1631194;87;21056;-78
2021/09/13 10:45:30;;;;;;;20.20;5.95;;;;;;;28.47;39.10;97606.09;1634907;86;20996;-77
2021/09/13 10:48:04;;;;;;;13.55;7.75;;;;;;;29.53;33.44;97604.44;1635726;88;21068;-78
2021/09/13 10:50:56;;;;;;;11.95;4.50;;;;;;;30.59;34.87;97597.69;1646177;87;21155;-79
2021/09/13 10:53:29;;;;;;;6.28;4.60;;;;;;;31.44;32.94;97605.28;1642119;87;21050;-78
2021/09/13 10:56:05;;;;;;;6.25;4.42;;;;;;;32.17;31.88;97600.08;1629141;87;20974;-77
2021/09/13 10:58:46;;;;;;;4.55;4.00;;;;;;;32.78;32.00;97598.77;1643449;87;20980;-79
2021/09/13 11:01:30;;;;;;;8.25;4.75;;;;;;;33.34;30.53;97595.73;1648025;86;21469;-79
2021/09/13 11:04:05;;;;;;;5.17;3.92;;;;;;;33.68;29.14;97597.30;1647088;86;21044;-78
2021/09/13 11:06:41;;;;;;;8.53;4.28;;;;;;;34.07;24.59;97598.53;1650158;86;21016;-79
2021/09/13 11:09:14;;;;;;;7.12;4.87;;;;;;;33.86;25.15;97599.48;1638726;87;21060;-78
2021/09/13 11:11:45;;;;;;;4.42;4.03;;;;;;;34.01;26.22;97594.34;1643363;87;21041;-79
2021/09/13 11:14:16;;;;;;;4.92;4.30;;;;;;;33.82;26.38;97589.43;1637141;87;21030;-77
2021/09/13 11:16:48;;;;;;;4.35;3.90;;;;;;;34.21;23.86;97597.20;1645912;86;21017;-80
2021/09/13 11:19:17;;;;;;;5.03;4.55;;;;;;;34.18;23.69;97590.21;1643599;87;21589;-78
2021/09/13 11:21:49;;;;;;;5.95;4.25;;;;;;;34.47;25.41;97594.16;1632119;87;21070;-77
2021/09/13 11:24:26;;;;;;;4.70;4.20;;;;;;;34.85;25.28;97589.97;1647790;87;21092;-76
2021/09/13 11:27:01;;;;;;;8.78;4.37;;;;;;;35.07;24.13;97580.13;1632467;87;21010;-77
2021/09/13 11:29:45;;;;;;;7.20;4.15;;;;;;;35.25;24.09;97584.98;1648039;86;21055;-77
2021/09/13 11:32:17;;;;;;;7.10;4.17;;;;;;;35.26;23.05;97578.41;1648305;87;21022;-77
2021/09/13 11:34:49;;;;;;;7.25;5.40;;;;;;;35.45;25.14;97582.71;1648492;87;21475;-77
2021/09/13 11:37:25;;;;;;;5.63;5.03;;;;;;;36.06;24.20;97575.90;1648603;87;21404;-77
2021/09/13 11:40:00;;;;;;;5.05;4.00;;;;;;;36.58;25.32;97576.31;1648425;86;21046;-77
2021/09/13 11:42:31;;;;;;;4.42;3.92;;;;;;;36.75;21.45;97575.80;1647570;87;21033;-77
2021/09/13 11:45:12;;;;;;;4.35;3.80;;;;;;;36.76;20.37;97579.39;1648426;86;21495;-76
2021/09/13 11:47:39;;;;;;;5.08;3.98;;;;;;;36.97;19.65;97574.00;1648479;87;21636;-77